Boardwalk — ZGAQ7 — position and weather

sailwx.info

Track history (hours):
 
Tides and Currents Weather Stations Pressure Air Temp Water Temp Dewpoint Dewpoint Depression Visibility Wind Speed Wind Dir Waves Ship Positions

Boardwalk

Last reported at 2016-Jul-26 02:33 UTC. Time now 2016-Jul-26 02:38 UTC.
Position N 38°03' E 013°34'.

Length 50 m; draft 2.7 m.

Type: Pleasure craft. MMSI: 319031900.

Date/timePositionNaut miles runAvg speedWind from/ knotsBaromVisibWave heightAir tempDewpointWater temp
2016-Jul-26 02:33N 38°03' E 013°34'0 0.0
2016-Jul-26 01:33N 38°03' E 013°34'0 0.0
2016-Jul-26 00:33N 38°03' E 013°34'0 0.0
2016-Jul-25 23:33N 38°03' E 013°34'0 0.0
2016-Jul-25 22:33N 38°03' E 013°34'6 6.3
2016-Jul-25 21:33N 38°03' E 013°42'6515.4
2016-Jul-25 17:21N 38°22' E 015°01'7 1.6
2016-Jul-25 13:10N 38°28' E 014°57'130 5.7
2016-Jul-24 14:31N 40°34' E 014°14'0 0.0
2016-Jul-24 12:07N 40°34' E 014°14'0 0.0
2016-Jul-24 11:31N 40°34' E 014°14'0 0.0
2016-Jul-24 10:31N 40°34' E 014°14'0 0.0
2016-Jul-24 09:31N 40°34' E 014°14'0 0.0
2016-Jul-24 08:07N 40°34' E 014°14'0 0.0
2016-Jul-24 07:31N 40°34' E 014°14'0 0.0
2016-Jul-24 06:31N 40°34' E 014°14'0 0.0
2016-Jul-24 04:13N 40°34' E 014°14'0 0.0
2016-Jul-24 03:31N 40°34' E 014°14'0 0.0
2016-Jul-24 02:31N 40°34' E 014°14'0 0.0
2016-Jul-24 01:31N 40°34' E 014°14'0 0.0
2016-Jul-24 00:31N 40°34' E 014°14'0 0.0
2016-Jul-23 23:25N 40°34' E 014°14'0 0.0
2016-Jul-23 22:25N 40°34' E 014°14'0 0.0
2016-Jul-23 21:31N 40°34' E 014°14'0 0.0
2016-Jul-23 20:31N 40°34' E 014°14'0 0.0
2016-Jul-23 19:19N 40°34' E 014°14'0 0.0
2016-Jul-23 18:25N 40°34' E 014°14'0 0.0
2016-Jul-23 17:25N 40°34' E 014°14'0 0.0
2016-Jul-23 16:31N 40°34' E 014°14'0 0.0
2016-Jul-23 15:25N 40°34' E 014°14'5 5.8
2016-Jul-23 14:34N 40°35' E 014°08'1614.6
2016-Jul-23 13:29N 40°43' E 013°50'7 7.9
2016-Jul-23 12:33N 40°49' E 013°45'1616.0
2016-Jul-23 11:33N 40°58' E 013°28'1616.0
2016-Jul-23 10:33N 41°07' E 013°10'1615.8
2016-Jul-23 09:32N 41°15' E 012°51'4815.7
2016-Jul-23 06:26N 41°45' E 011°60'8415.7
2016-Jul-23 01:06N 42°36' E 010°31'1015.7
2016-Jul-23 00:29N 42°41' E 010°20'5 5.5
2016-Jul-22 23:32N 42°45' E 010°15'0 0.0
2016-Jul-22 20:23N 42°45' E 010°15'0 0.0
2016-Jul-22 19:05N 42°45' E 010°15'0 0.0
2016-Jul-22 12:33N 42°45' E 010°15'9 9.2
2016-Jul-22 11:33N 42°49' E 010°03'2120.4
2016-Jul-22 10:31N 43°08' E 009°52'2020.5
2016-Jul-22 09:33N 43°27' E 009°42'2120.7
2016-Jul-22 08:33N 43°46' E 009°32'2120.8
2016-Jul-22 07:33N 44°05' E 009°21'14 0.7
2016-Jul-21 12:09N 44°18' E 009°13'4 6.0
2016-Jul-21 11:34N 44°16' E 009°09'1919.1
2016-Jul-21 10:33N 44°07' E 008°46'  
2016-Jul-18 10:32N 43°42' E 007°23'4 1.0
2016-Jul-18 06:10N 43°42' E 007°17'0 0.0
2016-Jul-18 05:28N 43°42' E 007°17'0 0.0
2016-Jul-18 04:28N 43°42' E 007°17'0 0.0
2016-Jul-18 03:28N 43°42' E 007°17'0 0.0
2016-Jul-18 02:28N 43°42' E 007°17'0 0.0
2016-Jul-18 01:28N 43°42' E 007°17'0 0.0
2016-Jul-18 00:28N 43°42' E 007°17'0 0.0
2016-Jul-17 23:16N 43°42' E 007°17'0 0.0
2016-Jul-17 22:28N 43°42' E 007°17'0 0.0
2016-Jul-17 21:28N 43°42' E 007°17'0 0.0
2016-Jul-17 19:28N 43°42' E 007°17'0 0.0
2016-Jul-17 18:10N 43°42' E 007°17'0 0.0
2016-Jul-17 12:28N 43°42' E 007°17'1 1.2
2016-Jul-17 11:34N 43°41' E 007°17'1514.4
2016-Jul-17 10:33N 43°29' E 007°04'4 0.2
2016-Jul-16 12:20N 43°33' E 007°01'6 7.8
2016-Jul-16 11:31N 43°27' E 006°58'  
Track history (hours):
 
Tides and Currents Weather Stations Pressure Air Temp Water Temp Dewpoint Dewpoint Depression Visibility Wind Speed Wind Dir Waves Ship Positions

Boardwalk

Last reported at 2016-Jul-26 02:33 UTC. Time now 2016-Jul-26 02:38 UTC.
Position N 38°03' E 013°34'.

Length 50 m; draft 2.7 m.

Type: Pleasure craft. MMSI: 319031900.

Date/timePositionNaut miles runAvg speedWind from/ knotsBaromVisibWave heightAir tempDewpointWater temp
2016-Jul-26 02:33N 38°03' E 013°34'0 0.0
2016-Jul-26 01:33N 38°03' E 013°34'0 0.0
2016-Jul-26 00:33N 38°03' E 013°34'0 0.0
2016-Jul-25 23:33N 38°03' E 013°34'0 0.0
2016-Jul-25 22:33N 38°03' E 013°34'6 6.3
2016-Jul-25 21:33N 38°03' E 013°42'6515.4
2016-Jul-25 17:21N 38°22' E 015°01'7 1.6
2016-Jul-25 13:10N 38°28' E 014°57'130 5.7
2016-Jul-24 14:31N 40°34' E 014°14'0 0.0
2016-Jul-24 12:07N 40°34' E 014°14'0 0.0
2016-Jul-24 11:31N 40°34' E 014°14'0 0.0
2016-Jul-24 10:31N 40°34' E 014°14'0 0.0
2016-Jul-24 09:31N 40°34' E 014°14'0 0.0
2016-Jul-24 08:07N 40°34' E 014°14'0 0.0
2016-Jul-24 07:31N 40°34' E 014°14'0 0.0
2016-Jul-24 06:31N 40°34' E 014°14'0 0.0
2016-Jul-24 04:13N 40°34' E 014°14'0 0.0
2016-Jul-24 03:31N 40°34' E 014°14'0 0.0
2016-Jul-24 02:31N 40°34' E 014°14'0 0.0
2016-Jul-24 01:31N 40°34' E 014°14'0 0.0
2016-Jul-24 00:31N 40°34' E 014°14'0 0.0
2016-Jul-23 23:25N 40°34' E 014°14'0 0.0
2016-Jul-23 22:25N 40°34' E 014°14'0 0.0
2016-Jul-23 21:31N 40°34' E 014°14'0 0.0
2016-Jul-23 20:31N 40°34' E 014°14'0 0.0
2016-Jul-23 19:19N 40°34' E 014°14'0 0.0
2016-Jul-23 18:25N 40°34' E 014°14'0 0.0
2016-Jul-23 17:25N 40°34' E 014°14'0 0.0
2016-Jul-23 16:31N 40°34' E 014°14'0 0.0
2016-Jul-23 15:25N 40°34' E 014°14'5 5.8
2016-Jul-23 14:34N 40°35' E 014°08'1614.6
2016-Jul-23 13:29N 40°43' E 013°50'7 7.9
2016-Jul-23 12:33N 40°49' E 013°45'1616.0
2016-Jul-23 11:33N 40°58' E 013°28'1616.0
2016-Jul-23 10:33N 41°07' E 013°10'1615.8
2016-Jul-23 09:32N 41°15' E 012°51'4815.7
2016-Jul-23 06:26N 41°45' E 011°60'8415.7
2016-Jul-23 01:06N 42°36' E 010°31'1015.7
2016-Jul-23 00:29N 42°41' E 010°20'5 5.5
2016-Jul-22 23:32N 42°45' E 010°15'0 0.0
2016-Jul-22 20:23N 42°45' E 010°15'0 0.0
2016-Jul-22 19:05N 42°45' E 010°15'0 0.0
2016-Jul-22 12:33N 42°45' E 010°15'9 9.2
2016-Jul-22 11:33N 42°49' E 010°03'2120.4
2016-Jul-22 10:31N 43°08' E 009°52'2020.5
2016-Jul-22 09:33N 43°27' E 009°42'2120.7
2016-Jul-22 08:33N 43°46' E 009°32'2120.8
2016-Jul-22 07:33N 44°05' E 009°21'14 0.7
2016-Jul-21 12:09N 44°18' E 009°13'4 6.0
2016-Jul-21 11:34N 44°16' E 009°09'1919.1
2016-Jul-21 10:33N 44°07' E 008°46'  
2016-Jul-18 10:32N 43°42' E 007°23'4 1.0
2016-Jul-18 06:10N 43°42' E 007°17'0 0.0
2016-Jul-18 05:28N 43°42' E 007°17'0 0.0
2016-Jul-18 04:28N 43°42' E 007°17'0 0.0
2016-Jul-18 03:28N 43°42' E 007°17'0 0.0
2016-Jul-18 02:28N 43°42' E 007°17'0 0.0
2016-Jul-18 01:28N 43°42' E 007°17'0 0.0
2016-Jul-18 00:28N 43°42' E 007°17'0 0.0
2016-Jul-17 23:16N 43°42' E 007°17'0 0.0
2016-Jul-17 22:28N 43°42' E 007°17'0 0.0
2016-Jul-17 21:28N 43°42' E 007°17'0 0.0
2016-Jul-17 19:28N 43°42' E 007°17'0 0.0
2016-Jul-17 18:10N 43°42' E 007°17'0 0.0
2016-Jul-17 12:28N 43°42' E 007°17'1 1.2
2016-Jul-17 11:34N 43°41' E 007°17'1514.4
2016-Jul-17 10:33N 43°29' E 007°04'4 0.2
2016-Jul-16 12:20N 43°33' E 007°01'6 7.8
2016-Jul-16 11:31N 43°27' E 006°58'  

Dump ship's entire track history